sensor_id;sensor_type;location;lat;lon;timestamp;P1;durP1;ratioP1;P2;durP2;ratioP2
36205;SDS011;22242;48.796;9.930;2022-10-31T00:00:10;7.68;;;2.83;;
36205;SDS011;22242;48.796;9.930;2022-10-31T00:02:38;7.47;;;2.55;;
36205;SDS011;22242;48.796;9.930;2022-10-31T00:05:05;7.22;;;2.38;;
36205;SDS011;22242;48.796;9.930;2022-10-31T00:07:32;8.45;;;2.28;;
36205;SDS011;22242;48.796;9.930;2022-10-31T00:09:59;10.80;;;2.55;;
36205;SDS011;22242;48.796;9.930;2022-10-31T00:12:26;11.45;;;2.80;;
36205;SDS011;22242;48.796;9.930;2022-10-31T00:14:53;8.35;;;2.25;;
36205;SDS011;22242;48.796;9.930;2022-10-31T00:17:23;9.82;;;3.15;;
36205;SDS011;22242;48.796;9.930;2022-10-31T00:19:50;10.30;;;2.55;;
36205;SDS011;22242;48.796;9.930;2022-10-31T00:22:17;8.80;;;3.03;;
36205;SDS011;22242;48.796;9.930;2022-10-31T00:24:44;8.90;;;2.70;;
36205;SDS011;22242;48.796;9.930;2022-10-31T00:27:11;6.38;;;2.40;;
36205;SDS011;22242;48.796;9.930;2022-10-31T00:29:37;8.25;;;2.95;;
36205;SDS011;22242;48.796;9.930;2022-10-31T00:32:04;9.00;;;2.78;;
36205;SDS011;22242;48.796;9.930;2022-10-31T00:34:33;9.40;;;2.90;;
36205;SDS011;22242;48.796;9.930;2022-10-31T00:36:59;9.43;;;2.83;;
36205;SDS011;22242;48.796;9.930;2022-10-31T00:39:26;8.10;;;2.33;;
36205;SDS011;22242;48.796;9.930;2022-10-31T00:41:53;12.23;;;3.05;;
36205;SDS011;22242;48.796;9.930;2022-10-31T00:44:20;17.10;;;2.85;;
36205;SDS011;22242;48.796;9.930;2022-10-31T00:46:47;10.00;;;2.40;;
36205;SDS011;22242;48.796;9.930;2022-10-31T00:49:13;10.23;;;2.53;;
36205;SDS011;22242;48.796;9.930;2022-10-31T00:51:42;10.88;;;2.83;;
36205;SDS011;22242;48.796;9.930;2022-10-31T00:54:08;5.68;;;2.40;;
36205;SDS011;22242;48.796;9.930;2022-10-31T00:56:36;8.32;;;2.40;;
36205;SDS011;22242;48.796;9.930;2022-10-31T00:59:02;8.18;;;2.58;;
36205;SDS011;22242;48.796;9.930;2022-10-31T01:01:29;8.43;;;3.25;;
36205;SDS011;22242;48.796;9.930;2022-10-31T01:03:56;9.73;;;3.05;;
36205;SDS011;22242;48.796;9.930;2022-10-31T01:06:23;14.57;;;3.90;;
36205;SDS011;22242;48.796;9.930;2022-10-31T01:08:51;7.15;;;3.92;;
36205;SDS011;22242;48.796;9.930;2022-10-31T01:11:18;8.20;;;4.00;;
36205;SDS011;22242;48.796;9.930;2022-10-31T01:13:46;10.00;;;3.88;;
36205;SDS011;22242;48.796;9.930;2022-10-31T01:16:16;8.88;;;3.70;;
36205;SDS011;22242;48.796;9.930;2022-10-31T01:18:45;11.60;;;3.45;;
36205;SDS011;22242;48.796;9.930;2022-10-31T01:21:13;11.80;;;4.10;;
36205;SDS011;22242;48.796;9.930;2022-10-31T01:23:41;7.07;;;3.17;;
36205;SDS011;22242;48.796;9.930;2022-10-31T01:26:13;6.82;;;4.00;;
36205;SDS011;22242;48.796;9.930;2022-10-31T01:28:43;8.15;;;2.95;;
36205;SDS011;22242;48.796;9.930;2022-10-31T01:31:11;10.02;;;3.20;;
36205;SDS011;22242;48.796;9.930;2022-10-31T01:33:38;15.18;;;3.20;;
36205;SDS011;22242;48.796;9.930;2022-10-31T01:36:15;7.55;;;3.00;;
36205;SDS011;22242;48.796;9.930;2022-10-31T01:38:44;8.65;;;3.00;;
36205;SDS011;22242;48.796;9.930;2022-10-31T01:41:13;10.52;;;3.28;;
36205;SDS011;22242;48.796;9.930;2022-10-31T01:43:42;10.68;;;3.20;;
36205;SDS011;22242;48.796;9.930;2022-10-31T01:46:13;7.43;;;2.92;;
36205;SDS011;22242;48.796;9.930;2022-10-31T01:48:41;11.82;;;3.05;;
36205;SDS011;22242;48.796;9.930;2022-10-31T01:51:08;8.40;;;3.47;;
36205;SDS011;22242;48.796;9.930;2022-10-31T01:53:38;9.82;;;3.15;;
36205;SDS011;22242;48.796;9.930;2022-10-31T01:56:07;6.43;;;2.80;;
36205;SDS011;22242;48.796;9.930;2022-10-31T01:58:37;6.57;;;3.05;;
36205;SDS011;22242;48.796;9.930;2022-10-31T02:01:06;10.45;;;3.20;;
36205;SDS011;22242;48.796;9.930;2022-10-31T02:03:32;8.65;;;3.08;;
36205;SDS011;22242;48.796;9.930;2022-10-31T02:06:00;16.42;;;3.55;;
36205;SDS011;22242;48.796;9.930;2022-10-31T02:08:27;9.93;;;2.80;;
36205;SDS011;22242;48.796;9.930;2022-10-31T02:10:55;6.32;;;2.63;;
36205;SDS011;22242;48.796;9.930;2022-10-31T02:13:23;7.05;;;3.65;;
36205;SDS011;22242;48.796;9.930;2022-10-31T02:15:54;13.13;;;3.30;;
36205;SDS011;22242;48.796;9.930;2022-10-31T02:18:22;8.15;;;2.90;;
36205;SDS011;22242;48.796;9.930;2022-10-31T02:21:04;18.58;;;3.33;;
36205;SDS011;22242;48.796;9.930;2022-10-31T02:29:49;6.97;;;2.83;;
36205;SDS011;22242;48.796;9.930;2022-10-31T02:32:34;12.20;;;4.10;;
36205;SDS011;22242;48.796;9.930;2022-10-31T02:35:13;11.05;;;3.38;;
36205;SDS011;22242;48.796;9.930;2022-10-31T02:37:48;8.38;;;3.65;;
36205;SDS011;22242;48.796;9.930;2022-10-31T02:40:23;6.43;;;3.20;;
36205;SDS011;22242;48.796;9.930;2022-10-31T02:43:25;7.45;;;3.25;;
36205;SDS011;22242;48.796;9.930;2022-10-31T02:45:58;9.25;;;3.53;;
36205;SDS011;22242;48.796;9.930;2022-10-31T02:48:36;7.63;;;3.08;;
36205;SDS011;22242;48.796;9.930;2022-10-31T02:51:06;8.45;;;3.53;;
36205;SDS011;22242;48.796;9.930;2022-10-31T02:53:35;6.93;;;3.03;;
36205;SDS011;22242;48.796;9.930;2022-10-31T02:56:05;10.35;;;3.38;;
36205;SDS011;22242;48.796;9.930;2022-10-31T02:58:37;8.13;;;2.88;;
36205;SDS011;22242;48.796;9.930;2022-10-31T03:01:13;10.13;;;3.28;;
36205;SDS011;22242;48.796;9.930;2022-10-31T03:04:14;8.95;;;3.40;;
36205;SDS011;22242;48.796;9.930;2022-10-31T03:06:56;7.28;;;3.33;;
36205;SDS011;22242;48.796;9.930;2022-10-31T03:09:32;10.05;;;4.82;;
36205;SDS011;22242;48.796;9.930;2022-10-31T03:12:04;7.45;;;3.47;;
36205;SDS011;22242;48.796;9.930;2022-10-31T03:14:38;10.45;;;3.58;;
36205;SDS011;22242;48.796;9.930;2022-10-31T03:17:10;11.25;;;4.15;;
36205;SDS011;22242;48.796;9.930;2022-10-31T03:19:47;6.88;;;3.40;;
36205;SDS011;22242;48.796;9.930;2022-10-31T03:22:16;9.75;;;3.67;;
36205;SDS011;22242;48.796;9.930;2022-10-31T03:24:45;5.53;;;3.50;;
36205;SDS011;22242;48.796;9.930;2022-10-31T03:27:14;9.60;;;3.10;;
36205;SDS011;22242;48.796;9.930;2022-10-31T03:29:45;8.45;;;3.45;;
36205;SDS011;22242;48.796;9.930;2022-10-31T03:32:15;9.55;;;4.10;;
36205;SDS011;22242;48.796;9.930;2022-10-31T03:34:47;6.15;;;3.38;;
36205;SDS011;22242;48.796;9.930;2022-10-31T03:37:17;8.60;;;3.60;;
36205;SDS011;22242;48.796;9.930;2022-10-31T03:39:46;8.88;;;3.53;;
36205;SDS011;22242;48.796;9.930;2022-10-31T03:42:17;9.35;;;3.20;;
36205;SDS011;22242;48.796;9.930;2022-10-31T03:44:51;6.78;;;3.25;;
36205;SDS011;22242;48.796;9.930;2022-10-31T03:47:22;9.20;;;3.75;;
36205;SDS011;22242;48.796;9.930;2022-10-31T03:49:50;10.10;;;3.83;;
36205;SDS011;22242;48.796;9.930;2022-10-31T03:52:19;8.73;;;3.70;;
36205;SDS011;22242;48.796;9.930;2022-10-31T03:54:51;7.30;;;3.70;;
36205;SDS011;22242;48.796;9.930;2022-10-31T03:57:24;8.30;;;3.83;;
36205;SDS011;22242;48.796;9.930;2022-10-31T03:59:55;8.32;;;3.38;;
36205;SDS011;22242;48.796;9.930;2022-10-31T04:02:27;11.55;;;3.92;;
36205;SDS011;22242;48.796;9.930;2022-10-31T04:04:58;8.10;;;3.53;;
36205;SDS011;22242;48.796;9.930;2022-10-31T04:07:31;14.07;;;4.32;;
36205;SDS011;22242;48.796;9.930;2022-10-31T04:10:06;12.52;;;4.13;;
36205;SDS011;22242;48.796;9.930;2022-10-31T04:12:41;7.45;;;3.72;;
36205;SDS011;22242;48.796;9.930;2022-10-31T04:15:16;8.63;;;4.97;;
36205;SDS011;22242;48.796;9.930;2022-10-31T04:17:45;16.75;;;5.47;;
36205;SDS011;22242;48.796;9.930;2022-10-31T04:20:18;7.00;;;3.70;;
36205;SDS011;22242;48.796;9.930;2022-10-31T04:22:55;9.23;;;3.83;;
36205;SDS011;22242;48.796;9.930;2022-10-31T04:25:22;11.25;;;4.32;;
36205;SDS011;22242;48.796;9.930;2022-10-31T04:27:51;9.57;;;3.53;;
36205;SDS011;22242;48.796;9.930;2022-10-31T04:30:17;6.32;;;3.38;;
36205;SDS011;22242;48.796;9.930;2022-10-31T04:32:44;10.82;;;3.80;;
36205;SDS011;22242;48.796;9.930;2022-10-31T04:35:11;5.82;;;3.60;;
36205;SDS011;22242;48.796;9.930;2022-10-31T04:37:40;8.30;;;3.70;;
36205;SDS011;22242;48.796;9.930;2022-10-31T04:40:08;8.38;;;3.55;;
36205;SDS011;22242;48.796;9.930;2022-10-31T04:42:55;9.50;;;3.92;;
36205;SDS011;22242;48.796;9.930;2022-10-31T04:45:22;12.13;;;4.28;;
36205;SDS011;22242;48.796;9.930;2022-10-31T04:47:51;10.15;;;4.55;;
36205;SDS011;22242;48.796;9.930;2022-10-31T04:50:18;10.35;;;3.58;;
36205;SDS011;22242;48.796;9.930;2022-10-31T04:52:47;11.93;;;3.83;;
36205;SDS011;22242;48.796;9.930;2022-10-31T04:55:18;7.88;;;4.07;;
36205;SDS011;22242;48.796;9.930;2022-10-31T04:58:04;6.13;;;3.65;;
36205;SDS011;22242;48.796;9.930;2022-10-31T05:00:32;8.23;;;3.28;;
36205;SDS011;22242;48.796;9.930;2022-10-31T05:02:59;8.48;;;2.50;;
36205;SDS011;22242;48.796;9.930;2022-10-31T05:05:27;8.07;;;2.13;;
36205;SDS011;22242;48.796;9.930;2022-10-31T05:08:00;6.73;;;2.60;;
36205;SDS011;22242;48.796;9.930;2022-10-31T05:10:29;6.22;;;2.83;;
36205;SDS011;22242;48.796;9.930;2022-10-31T05:12:59;6.20;;;2.53;;
36205;SDS011;22242;48.796;9.930;2022-10-31T05:15:45;6.57;;;2.38;;
36205;SDS011;22242;48.796;9.930;2022-10-31T05:18:31;4.82;;;2.65;;
36205;SDS011;22242;48.796;9.930;2022-10-31T05:21:27;7.45;;;2.38;;
36205;SDS011;22242;48.796;9.930;2022-10-31T05:23:59;5.20;;;2.58;;
36205;SDS011;22242;48.796;9.930;2022-10-31T05:26:27;5.65;;;2.00;;
36205;SDS011;22242;48.796;9.930;2022-10-31T05:28:54;5.63;;;2.20;;
36205;SDS011;22242;48.796;9.930;2022-10-31T05:31:22;8.30;;;2.78;;
36205;SDS011;22242;48.796;9.930;2022-10-31T05:33:49;7.93;;;2.40;;
36205;SDS011;22242;48.796;9.930;2022-10-31T05:36:42;7.40;;;2.70;;
36205;SDS011;22242;48.796;9.930;2022-10-31T05:39:14;8.82;;;2.50;;
36205;SDS011;22242;48.796;9.930;2022-10-31T05:41:46;9.48;;;2.33;;
36205;SDS011;22242;48.796;9.930;2022-10-31T05:44:18;5.63;;;2.15;;
36205;SDS011;22242;48.796;9.930;2022-10-31T05:46:58;6.95;;;2.10;;
36205;SDS011;22242;48.796;9.930;2022-10-31T05:49:43;5.78;;;2.10;;
36205;SDS011;22242;48.796;9.930;2022-10-31T05:52:29;11.05;;;2.60;;
36205;SDS011;22242;48.796;9.930;2022-10-31T05:55:05;6.70;;;2.47;;
36205;SDS011;22242;48.796;9.930;2022-10-31T05:57:33;7.70;;;2.65;;
36205;SDS011;22242;48.796;9.930;2022-10-31T06:00:00;8.95;;;3.08;;
36205;SDS011;22242;48.796;9.930;2022-10-31T06:02:33;5.47;;;2.58;;
36205;SDS011;22242;48.796;9.930;2022-10-31T06:05:29;10.88;;;2.75;;
36205;SDS011;22242;48.796;9.930;2022-10-31T06:07:57;8.82;;;2.65;;
36205;SDS011;22242;48.796;9.930;2022-10-31T06:10:25;5.63;;;2.78;;
36205;SDS011;22242;48.796;9.930;2022-10-31T06:12:54;8.38;;;2.38;;
36205;SDS011;22242;48.796;9.930;2022-10-31T06:15:30;9.57;;;2.60;;
36205;SDS011;22242;48.796;9.930;2022-10-31T06:17:58;9.85;;;2.97;;
36205;SDS011;22242;48.796;9.930;2022-10-31T06:20:28;10.23;;;3.20;;
36205;SDS011;22242;48.796;9.930;2022-10-31T06:23:00;7.40;;;3.90;;
36205;SDS011;22242;48.796;9.930;2022-10-31T06:25:29;9.07;;;3.72;;
36205;SDS011;22242;48.796;9.930;2022-10-31T06:27:56;6.95;;;3.65;;
36205;SDS011;22242;48.796;9.930;2022-10-31T06:30:29;8.90;;;3.63;;
36205;SDS011;22242;48.796;9.930;2022-10-31T06:33:01;10.40;;;3.55;;
36205;SDS011;22242;48.796;9.930;2022-10-31T06:35:28;8.85;;;2.58;;
36205;SDS011;22242;48.796;9.930;2022-10-31T06:37:55;6.32;;;2.75;;
36205;SDS011;22242;48.796;9.930;2022-10-31T06:40:31;13.35;;;3.08;;
36205;SDS011;22242;48.796;9.930;2022-10-31T06:43:17;7.53;;;3.13;;
36205;SDS011;22242;48.796;9.930;2022-10-31T06:45:44;7.00;;;3.05;;
36205;SDS011;22242;48.796;9.930;2022-10-31T06:48:20;8.32;;;4.07;;
36205;SDS011;22242;48.796;9.930;2022-10-31T06:51:07;6.32;;;3.42;;
36205;SDS011;22242;48.796;9.930;2022-10-31T06:53:36;9.85;;;3.58;;
36205;SDS011;22242;48.796;9.930;2022-10-31T06:56:06;9.55;;;3.70;;
36205;SDS011;22242;48.796;9.930;2022-10-31T06:58:38;6.18;;;2.30;;
36205;SDS011;22242;48.796;9.930;2022-10-31T07:01:07;3.67;;;3.20;;
36205;SDS011;22242;48.796;9.930;2022-10-31T07:03:34;8.38;;;2.42;;
36205;SDS011;22242;48.796;9.930;2022-10-31T07:06:01;7.50;;;3.40;;
36205;SDS011;22242;48.796;9.930;2022-10-31T07:08:27;9.68;;;4.65;;
36205;SDS011;22242;48.796;9.930;2022-10-31T07:10:55;11.85;;;4.35;;
36205;SDS011;22242;48.796;9.930;2022-10-31T07:13:25;12.20;;;5.88;;
36205;SDS011;22242;48.796;9.930;2022-10-31T07:16:05;11.75;;;5.47;;
36205;SDS011;22242;48.796;9.930;2022-10-31T07:18:34;11.68;;;4.95;;
36205;SDS011;22242;48.796;9.930;2022-10-31T07:21:01;10.05;;;5.35;;
36205;SDS011;22242;48.796;9.930;2022-10-31T07:23:28;14.27;;;6.85;;
36205;SDS011;22242;48.796;9.930;2022-10-31T07:26:13;17.08;;;8.43;;
36205;SDS011;22242;48.796;9.930;2022-10-31T07:28:47;16.30;;;7.90;;
36205;SDS011;22242;48.796;9.930;2022-10-31T07:31:16;9.45;;;5.32;;
36205;SDS011;22242;48.796;9.930;2022-10-31T07:33:43;14.10;;;6.45;;
36205;SDS011;22242;48.796;9.930;2022-10-31T07:36:39;13.15;;;5.25;;
36205;SDS011;22242;48.796;9.930;2022-10-31T07:39:05;10.45;;;4.13;;
36205;SDS011;22242;48.796;9.930;2022-10-31T07:41:34;10.98;;;3.65;;
36205;SDS011;22242;48.796;9.930;2022-10-31T07:44:02;14.02;;;4.80;;
36205;SDS011;22242;48.796;9.930;2022-10-31T07:46:48;12.15;;;4.82;;
36205;SDS011;22242;48.796;9.930;2022-10-31T07:49:18;7.25;;;4.13;;
36205;SDS011;22242;48.796;9.930;2022-10-31T07:52:03;11.63;;;4.35;;
36205;SDS011;22242;48.796;9.930;2022-10-31T07:54:49;20.13;;;14.15;;
36205;SDS011;22242;48.796;9.930;2022-10-31T07:57:21;16.15;;;7.07;;
36205;SDS011;22242;48.796;9.930;2022-10-31T07:59:49;15.15;;;5.88;;
36205;SDS011;22242;48.796;9.930;2022-10-31T08:02:17;7.72;;;5.03;;
36205;SDS011;22242;48.796;9.930;2022-10-31T08:04:47;11.30;;;5.00;;
36205;SDS011;22242;48.796;9.930;2022-10-31T08:07:48;16.83;;;4.18;;
36205;SDS011;22242;48.796;9.930;2022-10-31T08:10:19;7.75;;;4.00;;
36205;SDS011;22242;48.796;9.930;2022-10-31T08:12:47;10.35;;;4.25;;
36205;SDS011;22242;48.796;9.930;2022-10-31T08:15:22;10.57;;;3.55;;
36205;SDS011;22242;48.796;9.930;2022-10-31T08:17:50;10.23;;;3.90;;
36205;SDS011;22242;48.796;9.930;2022-10-31T08:20:17;6.90;;;3.92;;
36205;SDS011;22242;48.796;9.930;2022-10-31T08:22:55;9.00;;;4.15;;
36205;SDS011;22242;48.796;9.930;2022-10-31T08:25:23;10.77;;;4.00;;
36205;SDS011;22242;48.796;9.930;2022-10-31T08:27:51;9.20;;;3.97;;
36205;SDS011;22242;48.796;9.930;2022-10-31T08:30:20;12.73;;;4.38;;
36205;SDS011;22242;48.796;9.930;2022-10-31T08:33:10;10.95;;;3.90;;
36205;SDS011;22242;48.796;9.930;2022-10-31T08:35:57;9.15;;;4.07;;
36205;SDS011;22242;48.796;9.930;2022-10-31T08:38:44;7.88;;;3.53;;
36205;SDS011;22242;48.796;9.930;2022-10-31T08:41:12;17.10;;;10.52;;
36205;SDS011;22242;48.796;9.930;2022-10-31T08:43:39;19.67;;;10.93;;
36205;SDS011;22242;48.796;9.930;2022-10-31T08:46:07;19.90;;;9.38;;
36205;SDS011;22242;48.796;9.930;2022-10-31T08:48:35;18.13;;;8.27;;
36205;SDS011;22242;48.796;9.930;2022-10-31T08:51:02;13.65;;;8.43;;
36205;SDS011;22242;48.796;9.930;2022-10-31T08:53:30;14.13;;;6.78;;
36205;SDS011;22242;48.796;9.930;2022-10-31T08:56:22;13.00;;;6.88;;
36205;SDS011;22242;48.796;9.930;2022-10-31T08:58:49;11.88;;;7.15;;
36205;SDS011;22242;48.796;9.930;2022-10-31T09:01:27;9.70;;;6.25;;
36205;SDS011;22242;48.796;9.930;2022-10-31T09:03:53;14.88;;;6.38;;
36205;SDS011;22242;48.796;9.930;2022-10-31T09:06:21;14.48;;;4.88;;
36205;SDS011;22242;48.796;9.930;2022-10-31T09:08:47;8.75;;;5.15;;
36205;SDS011;22242;48.796;9.930;2022-10-31T09:11:15;7.07;;;4.20;;
36205;SDS011;22242;48.796;9.930;2022-10-31T09:14:17;8.38;;;4.20;;
36205;SDS011;22242;48.796;9.930;2022-10-31T09:17:08;6.40;;;3.90;;
36205;SDS011;22242;48.796;9.930;2022-10-31T09:20:04;7.05;;;4.10;;
36205;SDS011;22242;48.796;9.930;2022-10-31T09:22:34;5.68;;;3.67;;
36205;SDS011;22242;48.796;9.930;2022-10-31T09:25:01;6.10;;;4.22;;
36205;SDS011;22242;48.796;9.930;2022-10-31T09:27:28;9.27;;;3.72;;
36205;SDS011;22242;48.796;9.930;2022-10-31T09:29:56;9.68;;;4.18;;
36205;SDS011;22242;48.796;9.930;2022-10-31T09:32:24;7.90;;;3.88;;
36205;SDS011;22242;48.796;9.930;2022-10-31T09:34:51;13.75;;;5.13;;
36205;SDS011;22242;48.796;9.930;2022-10-31T09:37:19;8.10;;;4.00;;
36205;SDS011;22242;48.796;9.930;2022-10-31T09:39:46;6.57;;;3.70;;
36205;SDS011;22242;48.796;9.930;2022-10-31T09:42:27;6.82;;;3.33;;
36205;SDS011;22242;48.796;9.930;2022-10-31T09:45:16;12.07;;;4.35;;
36205;SDS011;22242;48.796;9.930;2022-10-31T09:50:28;8.00;;;3.92;;
36205;SDS011;22242;48.796;9.930;2022-10-31T09:53:21;7.93;;;3.95;;
36205;SDS011;22242;48.796;9.930;2022-10-31T09:55:50;12.50;;;4.38;;
36205;SDS011;22242;48.796;9.930;2022-10-31T09:58:18;9.90;;;3.75;;
36205;SDS011;22242;48.796;9.930;2022-10-31T10:00:48;9.85;;;3.63;;
36205;SDS011;22242;48.796;9.930;2022-10-31T10:03:19;10.65;;;4.15;;
36205;SDS011;22242;48.796;9.930;2022-10-31T10:05:59;8.57;;;3.78;;
36205;SDS011;22242;48.796;9.930;2022-10-31T10:08:52;9.98;;;3.95;;
36205;SDS011;22242;48.796;9.930;2022-10-31T10:11:37;11.55;;;4.03;;
36205;SDS011;22242;48.796;9.930;2022-10-31T10:14:25;6.43;;;3.65;;
36205;SDS011;22242;48.796;9.930;2022-10-31T10:17:07;10.93;;;4.63;;
36205;SDS011;22242;48.796;9.930;2022-10-31T10:19:50;10.60;;;5.25;;
36205;SDS011;22242;48.796;9.930;2022-10-31T10:22:29;9.60;;;5.20;;
36205;SDS011;22242;48.796;9.930;2022-10-31T10:25:19;10.27;;;4.97;;
36205;SDS011;22242;48.796;9.930;2022-10-31T10:27:58;12.55;;;4.82;;
36205;SDS011;22242;48.796;9.930;2022-10-31T10:30:33;11.40;;;4.90;;
36205;SDS011;22242;48.796;9.930;2022-10-31T10:33:08;8.55;;;4.82;;
36205;SDS011;22242;48.796;9.930;2022-10-31T10:35:40;8.10;;;5.63;;
36205;SDS011;22242;48.796;9.930;2022-10-31T10:38:13;11.45;;;5.30;;
36205;SDS011;22242;48.796;9.930;2022-10-31T10:40:44;11.73;;;4.88;;
36205;SDS011;22242;48.796;9.930;2022-10-31T10:43:17;14.73;;;5.40;;
36205;SDS011;22242;48.796;9.930;2022-10-31T10:45:53;15.38;;;4.70;;
36205;SDS011;22242;48.796;9.930;2022-10-31T10:48:44;13.00;;;4.68;;
36205;SDS011;22242;48.796;9.930;2022-10-31T10:51:22;10.40;;;4.40;;
36205;SDS011;22242;48.796;9.930;2022-10-31T10:53:57;15.18;;;5.10;;
36205;SDS011;22242;48.796;9.930;2022-10-31T10:56:34;9.55;;;5.03;;
36205;SDS011;22242;48.796;9.930;2022-10-31T10:59:07;12.52;;;4.80;;
36205;SDS011;22242;48.796;9.930;2022-10-31T11:01:38;14.45;;;5.00;;
36205;SDS011;22242;48.796;9.930;2022-10-31T11:04:11;13.93;;;5.43;;
36205;SDS011;22242;48.796;9.930;2022-10-31T11:06:57;11.77;;;5.45;;
36205;SDS011;22242;48.796;9.930;2022-10-31T11:09:25;10.52;;;5.18;;
36205;SDS011;22242;48.796;9.930;2022-10-31T11:11:52;13.27;;;5.40;;
36205;SDS011;22242;48.796;9.930;2022-10-31T11:14:20;12.93;;;5.68;;
36205;SDS011;22242;48.796;9.930;2022-10-31T11:16:49;11.18;;;5.35;;
36205;SDS011;22242;48.796;9.930;2022-10-31T11:19:20;12.57;;;6.25;;
36205;SDS011;22242;48.796;9.930;2022-10-31T11:21:50;15.02;;;5.63;;
36205;SDS011;22242;48.796;9.930;2022-10-31T11:24:19;13.18;;;5.88;;
36205;SDS011;22242;48.796;9.930;2022-10-31T11:26:47;16.67;;;7.10;;
36205;SDS011;22242;48.796;9.930;2022-10-31T11:29:16;14.55;;;6.45;;
36205;SDS011;22242;48.796;9.930;2022-10-31T11:31:46;15.50;;;6.30;;
36205;SDS011;22242;48.796;9.930;2022-10-31T11:34:17;16.42;;;5.93;;
36205;SDS011;22242;48.796;9.930;2022-10-31T11:36:51;17.15;;;6.80;;
36205;SDS011;22242;48.796;9.930;2022-10-31T11:39:20;13.80;;;6.53;;
36205;SDS011;22242;48.796;9.930;2022-10-31T11:41:50;13.57;;;5.63;;
36205;SDS011;22242;48.796;9.930;2022-10-31T11:44:19;13.35;;;6.13;;
36205;SDS011;22242;48.796;9.930;2022-10-31T11:46:49;18.40;;;7.03;;
36205;SDS011;22242;48.796;9.930;2022-10-31T11:49:19;16.42;;;6.20;;
36205;SDS011;22242;48.796;9.930;2022-10-31T11:51:50;13.20;;;5.80;;
36205;SDS011;22242;48.796;9.930;2022-10-31T11:54:23;17.02;;;6.07;;
36205;SDS011;22242;48.796;9.930;2022-10-31T11:56:51;12.82;;;5.88;;
36205;SDS011;22242;48.796;9.930;2022-10-31T11:59:22;15.55;;;6.40;;
36205;SDS011;22242;48.796;9.930;2022-10-31T12:01:52;20.08;;;6.30;;
36205;SDS011;22242;48.796;9.930;2022-10-31T12:04:23;13.15;;;6.53;;
36205;SDS011;22242;48.796;9.930;2022-10-31T12:06:57;15.57;;;6.78;;
36205;SDS011;22242;48.796;9.930;2022-10-31T12:09:28;15.35;;;6.63;;
36205;SDS011;22242;48.796;9.930;2022-10-31T12:12:03;11.10;;;6.00;;
36205;SDS011;22242;48.796;9.930;2022-10-31T12:14:38;14.52;;;6.35;;
36205;SDS011;22242;48.796;9.930;2022-10-31T12:17:13;11.98;;;5.72;;
36205;SDS011;22242;48.796;9.930;2022-10-31T12:19:45;13.63;;;6.28;;
36205;SDS011;22242;48.796;9.930;2022-10-31T12:22:21;16.60;;;6.45;;
36205;SDS011;22242;48.796;9.930;2022-10-31T12:25:03;17.17;;;6.38;;
36205;SDS011;22242;48.796;9.930;2022-10-31T12:27:45;12.63;;;6.05;;
36205;SDS011;22242;48.796;9.930;2022-10-31T12:30:30;17.33;;;5.70;;
36205;SDS011;22242;48.796;9.930;2022-10-31T12:33:14;11.10;;;5.57;;
36205;SDS011;22242;48.796;9.930;2022-10-31T12:35:51;15.10;;;4.70;;
36205;SDS011;22242;48.796;9.930;2022-10-31T12:38:33;14.25;;;5.70;;
36205;SDS011;22242;48.796;9.930;2022-10-31T12:41:15;17.88;;;5.55;;
36205;SDS011;22242;48.796;9.930;2022-10-31T12:43:52;16.65;;;5.25;;
36205;SDS011;22242;48.796;9.930;2022-10-31T12:46:25;14.63;;;5.05;;
36205;SDS011;22242;48.796;9.930;2022-10-31T12:49:25;15.88;;;4.82;;
36205;SDS011;22242;48.796;9.930;2022-10-31T12:52:06;9.65;;;4.97;;
36205;SDS011;22242;48.796;9.930;2022-10-31T12:54:48;13.40;;;4.20;;
36205;SDS011;22242;48.796;9.930;2022-10-31T12:57:26;15.90;;;4.20;;
36205;SDS011;22242;48.796;9.930;2022-10-31T12:59:59;10.57;;;4.45;;
36205;SDS011;22242;48.796;9.930;2022-10-31T13:02:31;13.73;;;3.85;;
36205;SDS011;22242;48.796;9.930;2022-10-31T13:05:02;12.55;;;3.78;;
36205;SDS011;22242;48.796;9.930;2022-10-31T13:07:34;13.05;;;3.72;;
36205;SDS011;22242;48.796;9.930;2022-10-31T13:10:05;14.03;;;3.80;;
36205;SDS011;22242;48.796;9.930;2022-10-31T13:12:41;17.30;;;4.05;;
36205;SDS011;22242;48.796;9.930;2022-10-31T13:15:12;12.88;;;4.88;;
36205;SDS011;22242;48.796;9.930;2022-10-31T13:20:19;10.65;;;4.15;;
36205;SDS011;22242;48.796;9.930;2022-10-31T13:22:50;12.57;;;3.90;;
36205;SDS011;22242;48.796;9.930;2022-10-31T13:25:20;17.50;;;4.45;;
36205;SDS011;22242;48.796;9.930;2022-10-31T13:27:53;13.32;;;4.18;;
36205;SDS011;22242;48.796;9.930;2022-10-31T13:30:23;12.27;;;4.70;;
36205;SDS011;22242;48.796;9.930;2022-10-31T13:32:54;10.98;;;4.22;;
36205;SDS011;22242;48.796;9.930;2022-10-31T13:35:26;17.27;;;4.43;;
36205;SDS011;22242;48.796;9.930;2022-10-31T13:38:13;14.65;;;4.47;;
36205;SDS011;22242;48.796;9.930;2022-10-31T13:40:47;9.73;;;3.70;;
36205;SDS011;22242;48.796;9.930;2022-10-31T13:43:27;10.70;;;4.20;;
36205;SDS011;22242;48.796;9.930;2022-10-31T13:45:58;12.98;;;5.00;;
36205;SDS011;22242;48.796;9.930;2022-10-31T13:48:33;18.52;;;4.93;;
36205;SDS011;22242;48.796;9.930;2022-10-31T13:51:03;14.90;;;4.68;;
36205;SDS011;22242;48.796;9.930;2022-10-31T13:53:36;13.75;;;5.70;;
36205;SDS011;22242;48.796;9.930;2022-10-31T13:56:11;15.77;;;4.60;;
36205;SDS011;22242;48.796;9.930;2022-10-31T13:58:53;12.52;;;4.82;;
36205;SDS011;22242;48.796;9.930;2022-10-31T14:01:45;18.65;;;5.88;;
36205;SDS011;22242;48.796;9.930;2022-10-31T14:04:15;23.33;;;5.83;;
36205;SDS011;22242;48.796;9.930;2022-10-31T14:06:47;18.95;;;6.10;;
36205;SDS011;22242;48.796;9.930;2022-10-31T14:09:32;19.52;;;5.63;;
36205;SDS011;22242;48.796;9.930;2022-10-31T14:12:02;18.02;;;5.82;;
36205;SDS011;22242;48.796;9.930;2022-10-31T14:14:34;17.15;;;5.13;;
36205;SDS011;22242;48.796;9.930;2022-10-31T14:17:13;22.83;;;6.15;;
36205;SDS011;22242;48.796;9.930;2022-10-31T14:19:55;20.63;;;5.60;;
36205;SDS011;22242;48.796;9.930;2022-10-31T14:22:30;14.60;;;5.35;;
36205;SDS011;22242;48.796;9.930;2022-10-31T14:24:58;16.92;;;6.13;;
36205;SDS011;22242;48.796;9.930;2022-10-31T14:27:35;18.20;;;6.28;;
36205;SDS011;22242;48.796;9.930;2022-10-31T14:30:16;14.15;;;5.07;;
36205;SDS011;22242;48.796;9.930;2022-10-31T14:32:49;18.98;;;5.25;;
36205;SDS011;22242;48.796;9.930;2022-10-31T14:35:18;13.90;;;4.88;;
36205;SDS011;22242;48.796;9.930;2022-10-31T14:38:02;23.15;;;6.93;;
36205;SDS011;22242;48.796;9.930;2022-10-31T14:40:52;13.27;;;5.18;;
36205;SDS011;22242;48.796;9.930;2022-10-31T14:43:39;15.82;;;5.28;;
36205;SDS011;22242;48.796;9.930;2022-10-31T14:46:16;15.07;;;4.47;;
36205;SDS011;22242;48.796;9.930;2022-10-31T14:48:53;14.55;;;4.80;;
36205;SDS011;22242;48.796;9.930;2022-10-31T14:51:38;11.55;;;4.78;;
36205;SDS011;22242;48.796;9.930;2022-10-31T14:54:10;13.18;;;4.75;;
36205;SDS011;22242;48.796;9.930;2022-10-31T14:56:41;16.25;;;4.53;;
36205;SDS011;22242;48.796;9.930;2022-10-31T14:59:15;12.60;;;5.72;;
36205;SDS011;22242;48.796;9.930;2022-10-31T15:01:50;14.90;;;4.40;;
36205;SDS011;22242;48.796;9.930;2022-10-31T15:04:25;15.88;;;4.30;;
36205;SDS011;22242;48.796;9.930;2022-10-31T15:06:58;13.50;;;4.25;;
36205;SDS011;22242;48.796;9.930;2022-10-31T15:09:29;16.75;;;4.35;;
36205;SDS011;22242;48.796;9.930;2022-10-31T15:11:57;14.05;;;4.60;;
36205;SDS011;22242;48.796;9.930;2022-10-31T15:14:25;11.60;;;4.18;;
36205;SDS011;22242;48.796;9.930;2022-10-31T15:16:56;10.65;;;4.55;;
36205;SDS011;22242;48.796;9.930;2022-10-31T15:19:25;16.90;;;4.60;;
36205;SDS011;22242;48.796;9.930;2022-10-31T15:21:54;17.88;;;3.90;;
36205;SDS011;22242;48.796;9.930;2022-10-31T15:24:23;11.75;;;4.68;;
36205;SDS011;22242;48.796;9.930;2022-10-31T15:26:52;16.92;;;4.50;;